createdAt,value
2023-04-10T00:02:26.645Z,9.20
2023-04-10T00:05:01.709Z,9.20
2023-04-10T00:07:34.136Z,9.20
2023-04-10T00:10:06.302Z,9.20
2023-04-10T00:12:38.296Z,9.10
2023-04-10T00:15:11.916Z,9.10
2023-04-10T00:17:44.109Z,9.10
2023-04-10T00:20:16.280Z,9.10
2023-04-10T00:22:48.361Z,9.00
2023-04-10T00:25:20.525Z,9.00
2023-04-10T00:27:53.562Z,9.00
2023-04-10T00:30:25.512Z,8.90
2023-04-10T00:32:57.510Z,8.90
2023-04-10T00:35:29.409Z,8.90
2023-04-10T00:38:01.280Z,8.80
2023-04-10T00:40:33.400Z,8.70
2023-04-10T00:43:05.268Z,8.70
2023-04-10T00:45:37.281Z,8.60
2023-04-10T00:48:09.296Z,8.50
2023-04-10T00:50:41.475Z,8.60
2023-04-10T00:53:13.466Z,8.70
2023-04-10T00:55:46.109Z,8.80
2023-04-10T00:58:18.083Z,8.80
2023-04-10T01:00:51.672Z,8.70
2023-04-10T01:03:24.566Z,8.70
2023-04-10T01:06:24.775Z,8.60
2023-04-10T01:09:10.248Z,8.60
2023-04-10T01:11:48.219Z,8.50
2023-04-10T01:14:36.422Z,8.50
2023-04-10T01:17:13.185Z,8.50
2023-04-10T01:20:05.533Z,8.50
2023-04-10T01:23:11.189Z,8.60
2023-04-10T01:26:05.701Z,8.70
2023-04-10T01:28:43.446Z,8.80
2023-04-10T01:31:21.989Z,8.70
2023-04-10T01:34:02.665Z,8.60
2023-04-10T01:36:39.247Z,8.60
2023-04-10T01:39:12.360Z,8.60
2023-04-10T01:41:46.530Z,8.50
2023-04-10T01:44:29.155Z,8.40
2023-04-10T01:47:02.540Z,8.30
2023-04-10T01:49:44.589Z,8.30
2023-04-10T01:52:17.931Z,8.30
2023-04-10T01:54:54.897Z,8.40
2023-04-10T01:57:38.659Z,8.60
2023-04-10T02:00:11.110Z,8.50
2023-04-10T02:02:49.493Z,8.40
2023-04-10T02:05:23.117Z,8.30
2023-04-10T02:08:15.711Z,8.30
2023-04-10T02:11:05.843Z,8.30
2023-04-10T02:13:40.922Z,8.20
2023-04-10T02:16:17.418Z,8.10
2023-04-10T02:18:51.712Z,7.90
2023-04-10T02:21:23.739Z,7.90
2023-04-10T02:23:58.436Z,7.80
2023-04-10T02:26:30.353Z,7.80
2023-04-10T02:29:02.265Z,7.80
2023-04-10T02:31:34.177Z,7.90
2023-04-10T02:34:06.077Z,7.90
2023-04-10T02:36:41.321Z,7.80
2023-04-10T02:39:15.886Z,7.80
2023-04-10T02:41:53.528Z,7.80
2023-04-10T02:44:26.180Z,7.70
2023-04-10T02:46:58.870Z,7.60
2023-04-10T02:49:31.727Z,7.50
2023-04-10T02:52:07.422Z,7.30
2023-04-10T02:54:40.333Z,7.20
2023-04-10T02:57:12.306Z,7.20
2023-04-10T02:59:44.724Z,7.10
2023-04-10T03:02:17.879Z,7.10
2023-04-10T03:04:50.509Z,7.20
2023-04-10T03:07:22.368Z,7.10
2023-04-10T03:09:54.378Z,7.10
2023-04-10T03:12:27.028Z,7.00
2023-04-10T03:14:58.887Z,7.00
2023-04-10T03:17:30.797Z,7.00
2023-04-10T03:20:02.745Z,7.00
2023-04-10T03:22:36.564Z,7.00
2023-04-10T03:25:09.010Z,7.00
2023-04-10T03:27:41.235Z,6.90
2023-04-10T03:30:13.203Z,6.90
2023-04-10T03:32:47.285Z,7.00
2023-04-10T03:35:19.323Z,6.90
2023-04-10T03:37:51.276Z,6.80
2023-04-10T03:40:23.191Z,6.70
2023-04-10T03:42:55.183Z,6.60
2023-04-10T03:45:27.425Z,6.60
2023-04-10T03:47:59.566Z,6.70
2023-04-10T03:50:33.137Z,6.70
2023-04-10T03:53:05.843Z,6.70
2023-04-10T03:55:38.723Z,6.60
2023-04-10T03:58:10.683Z,6.60
2023-04-10T04:00:42.599Z,6.60
2023-04-10T04:03:27.209Z,6.60
2023-04-10T04:06:05.577Z,6.60
2023-04-10T04:08:38.785Z,6.50
2023-04-10T04:11:40.645Z,6.50
2023-04-10T04:14:21.586Z,6.50
2023-04-10T04:17:01.312Z,6.50
2023-04-10T04:20:00.637Z,6.50
2023-04-10T04:22:59.064Z,6.40
2023-04-10T04:25:52.770Z,6.50
2023-04-10T04:28:39.839Z,6.50
2023-04-10T04:31:32.501Z,6.50
2023-04-10T04:34:18.994Z,6.40
2023-04-10T04:37:16.334Z,6.40
2023-04-10T04:40:02.071Z,6.40
2023-04-10T04:42:44.209Z,6.50
2023-04-10T04:45:49.096Z,6.60
2023-04-10T04:48:42.169Z,6.60
2023-04-10T04:51:27.152Z,6.50
2023-04-10T04:54:22.696Z,6.50
2023-04-10T04:57:17.552Z,6.40
2023-04-10T05:00:10.252Z,6.30
2023-04-10T05:02:54.405Z,6.20
2023-04-10T05:05:35.560Z,6.30
2023-04-10T05:08:27.713Z,6.40
2023-04-10T05:11:29.985Z,6.50
2023-04-10T05:14:22.266Z,6.60
2023-04-10T05:17:12.949Z,6.60
2023-04-10T05:19:48.174Z,6.90
2023-04-10T05:22:29.618Z,7.30
2023-04-10T05:25:19.721Z,7.90
2023-04-10T05:28:10.343Z,8.60
2023-04-10T05:30:58.540Z,9.20
2023-04-10T05:33:48.972Z,9.60
2023-04-10T05:36:29.795Z,9.80
2023-04-10T05:39:12.188Z,10.10
2023-04-10T05:41:58.894Z,10.20
2023-04-10T05:44:38.212Z,10.20
2023-04-10T05:47:36.182Z,10.50
2023-04-10T05:50:30.765Z,10.60
2023-04-10T05:53:32.361Z,11.20
2023-04-10T05:56:36.762Z,11.50
2023-04-10T05:59:31.116Z,11.50
2023-04-10T06:02:08.366Z,11.50
2023-04-10T06:04:40.637Z,11.70
2023-04-10T06:07:12.885Z,12.20
2023-04-10T06:09:45.786Z,12.60
2023-04-10T06:12:17.774Z,13.30
2023-04-10T06:14:49.841Z,13.70
2023-04-10T06:17:25.967Z,13.70
2023-04-10T06:20:01.067Z,13.50
2023-04-10T06:22:32.940Z,13.70
2023-04-10T06:25:05.517Z,14.20
2023-04-10T06:27:37.686Z,14.50
2023-04-10T06:30:12.776Z,14.80
2023-04-10T06:32:44.738Z,14.70
2023-04-10T06:35:17.286Z,14.50
2023-04-10T06:37:49.180Z,14.80
2023-04-10T06:40:21.032Z,15.00
2023-04-10T06:42:52.836Z,14.90
2023-04-10T06:45:34.187Z,15.30
2023-04-10T06:48:06.964Z,15.60
2023-04-10T06:50:38.910Z,16.10
2023-04-10T06:53:11.066Z,16.40
2023-04-10T06:55:42.999Z,16.90
2023-04-10T06:58:14.865Z,17.00
2023-04-10T07:00:46.829Z,16.80
2023-04-10T07:03:18.883Z,17.30
2023-04-10T07:05:50.830Z,17.60
2023-04-10T07:08:22.685Z,17.80
2023-04-10T07:10:55.212Z,17.40
2023-04-10T07:13:28.703Z,17.20
2023-04-10T07:16:00.794Z,17.30
2023-04-10T07:18:32.684Z,17.90
2023-04-10T07:21:13.297Z,18.20
2023-04-10T07:23:45.215Z,17.50
2023-04-10T07:26:17.056Z,16.80
2023-04-10T07:28:48.964Z,16.40
2023-04-10T07:31:20.868Z,16.60
2023-04-10T07:33:52.695Z,16.90
2023-04-10T07:36:24.605Z,17.30
2023-04-10T07:38:56.853Z,17.30
2023-04-10T07:41:28.888Z,16.60
2023-04-10T07:44:01.156Z,16.40
2023-04-10T07:46:33.253Z,16.70
2023-04-10T07:49:06.152Z,16.70
2023-04-10T07:51:39.968Z,17.10
2023-04-10T07:54:11.813Z,17.90
2023-04-10T07:56:43.687Z,18.50
2023-04-10T07:59:15.525Z,18.70
2023-04-10T08:01:47.495Z,17.80
2023-04-10T08:04:19.684Z,17.90
2023-04-10T08:06:51.689Z,18.20
2023-04-10T08:09:23.569Z,18.50
2023-04-10T08:11:57.100Z,17.70
2023-04-10T08:14:28.987Z,16.90
2023-04-10T08:17:01.244Z,16.20
2023-04-10T08:19:52.028Z,16.40
2023-04-10T08:22:24.041Z,16.50
2023-04-10T08:24:55.969Z,16.50
2023-04-10T08:27:28.544Z,16.90
2023-04-10T08:30:00.448Z,17.00
2023-04-10T08:32:32.474Z,17.10
2023-04-10T08:35:04.726Z,17.00
2023-04-10T08:37:37.088Z,17.80
2023-04-10T08:40:09.367Z,17.70
2023-04-10T08:42:41.291Z,17.50
2023-04-10T08:45:13.127Z,17.00
2023-04-10T08:47:47.307Z,16.50
2023-04-10T08:50:20.304Z,16.00
2023-04-10T08:52:54.196Z,16.40
2023-04-10T08:55:26.727Z,16.60
2023-04-10T08:58:01.470Z,16.50
2023-04-10T09:00:34.736Z,16.90
2023-04-10T09:03:14.207Z,17.40
2023-04-10T09:05:46.254Z,17.60
2023-04-10T09:08:18.136Z,17.30
2023-04-10T09:10:49.987Z,17.40
2023-04-10T09:13:43.246Z,17.80
2023-04-10T09:16:15.262Z,17.30
2023-04-10T09:18:51.603Z,17.20
2023-04-10T09:21:23.510Z,17.20
2023-04-10T09:24:01.599Z,17.10
2023-04-10T09:26:34.036Z,17.50
2023-04-10T09:29:07.641Z,17.60
2023-04-10T09:31:40.389Z,17.50
2023-04-10T09:34:18.087Z,17.60
2023-04-10T09:36:56.037Z,17.80
2023-04-10T09:39:36.134Z,18.10
2023-04-10T09:42:08.149Z,18.00
2023-04-10T09:44:41.923Z,17.90
2023-04-10T09:47:13.727Z,17.80
2023-04-10T09:49:52.492Z,18.10
2023-04-10T09:52:34.773Z,17.40
2023-04-10T09:55:10.149Z,17.40
2023-04-10T09:57:42.419Z,17.40
2023-04-10T10:00:14.766Z,17.10
2023-04-10T10:02:48.344Z,17.20
2023-04-10T10:05:21.074Z,17.40
2023-04-10T10:07:52.992Z,17.70
2023-04-10T10:10:26.124Z,17.40
2023-04-10T10:13:01.981Z,16.90
2023-04-10T10:15:49.534Z,17.20
2023-04-10T10:18:31.706Z,17.70
2023-04-10T10:21:04.720Z,17.80
2023-04-10T10:23:38.094Z,17.50
2023-04-10T10:26:10.667Z,17.00
2023-04-10T10:28:46.637Z,16.90
2023-04-10T10:31:19.972Z,16.40
2023-04-10T10:33:53.058Z,16.60
2023-04-10T10:36:25.958Z,16.90
2023-04-10T10:39:20.765Z,16.60
2023-04-10T10:42:07.673Z,16.20
2023-04-10T10:45:01.202Z,16.10
2023-04-10T10:47:38.896Z,16.00
2023-04-10T10:50:10.988Z,16.00
2023-04-10T10:52:44.649Z,16.30
2023-04-10T10:55:22.691Z,16.40
2023-04-10T10:57:56.088Z,16.50
2023-04-10T11:00:51.401Z,16.90
2023-04-10T11:03:23.515Z,16.90
2023-04-10T11:06:19.360Z,16.60
2023-04-10T11:08:55.691Z,16.60
2023-04-10T11:11:27.939Z,17.00
2023-04-10T11:13:59.817Z,17.50
2023-04-10T11:16:33.065Z,17.90
2023-04-10T11:19:14.830Z,18.00
2023-04-10T11:22:08.455Z,17.30
2023-04-10T11:25:00.288Z,17.50
2023-04-10T11:27:49.290Z,18.00
2023-04-10T11:30:32.344Z,17.10
2023-04-10T11:33:05.587Z,16.60
2023-04-10T11:35:38.564Z,16.50
2023-04-10T11:38:15.060Z,16.40
2023-04-10T11:40:58.039Z,16.40
2023-04-10T11:43:31.156Z,16.20
2023-04-10T11:46:08.950Z,16.30
2023-04-10T11:48:41.091Z,16.00
2023-04-10T11:51:14.332Z,15.90
2023-04-10T11:53:46.399Z,15.90
2023-04-10T11:56:22.139Z,16.10
2023-04-10T11:58:54.944Z,16.10
2023-04-10T12:01:27.232Z,16.10
2023-04-10T12:03:59.804Z,15.90
2023-04-10T12:06:32.057Z,15.80
2023-04-10T12:09:13.397Z,15.60
2023-04-10T12:12:04.498Z,15.90
2023-04-10T12:14:38.719Z,16.10
2023-04-10T12:17:11.734Z,16.30
2023-04-10T12:19:43.960Z,16.20
2023-04-10T12:22:16.076Z,16.40
2023-04-10T12:24:50.749Z,16.50
2023-04-10T12:27:25.631Z,17.00
2023-04-10T12:29:58.897Z,17.40
2023-04-10T12:32:31.176Z,17.90
2023-04-10T12:35:03.261Z,17.90
2023-04-10T12:37:52.378Z,17.80
2023-04-10T12:40:24.370Z,18.20
2023-04-10T12:42:56.397Z,18.00
2023-04-10T12:45:44.817Z,17.80
2023-04-10T12:48:23.716Z,17.70
2023-04-10T12:50:55.972Z,17.40
2023-04-10T12:53:28.238Z,16.90
2023-04-10T12:56:06.461Z,17.00
2023-04-10T12:58:39.451Z,17.00
2023-04-10T13:01:11.504Z,17.20
2023-04-10T13:03:43.466Z,17.60
2023-04-10T13:06:15.489Z,18.00
2023-04-10T13:08:47.353Z,18.30
2023-04-10T13:11:19.232Z,18.20
2023-04-10T13:13:52.657Z,18.40
2023-04-10T13:16:24.671Z,18.20
2023-04-10T13:18:56.963Z,17.90
2023-04-10T13:21:29.350Z,18.00
2023-04-10T13:24:01.210Z,18.10
2023-04-10T13:26:33.128Z,17.80
2023-04-10T13:29:04.991Z,17.80
2023-04-10T13:31:36.930Z,17.40
2023-04-10T13:34:08.867Z,17.00
2023-04-10T13:36:40.914Z,16.90
2023-04-10T13:39:12.880Z,16.90
2023-04-10T13:41:44.754Z,17.00
2023-04-10T13:44:16.638Z,17.10
2023-04-10T13:46:48.617Z,17.30
2023-04-10T13:49:22.130Z,17.20
2023-04-10T13:51:54.129Z,17.30
2023-04-10T13:54:26.618Z,17.50
2023-04-10T13:56:59.404Z,17.60
2023-04-10T13:59:31.394Z,17.30
2023-04-10T14:02:03.370Z,17.50
2023-04-10T14:04:35.324Z,17.50
2023-04-10T14:07:07.248Z,17.50
2023-04-10T14:09:39.560Z,17.60
2023-04-10T14:12:11.986Z,17.90
2023-04-10T14:14:44.956Z,18.00
2023-04-10T14:17:16.804Z,18.20
2023-04-10T14:19:51.558Z,17.90
2023-04-10T14:22:23.594Z,17.70
2023-04-10T14:25:05.211Z,17.70
2023-04-10T14:27:44.163Z,17.90
2023-04-10T14:30:16.112Z,18.20
2023-04-10T14:32:48.016Z,18.20
2023-04-10T14:35:20.082Z,18.30
2023-04-10T14:37:51.932Z,18.20
2023-04-10T14:40:25.768Z,18.10
2023-04-10T14:42:57.643Z,18.30
2023-04-10T14:45:29.654Z,18.40
2023-04-10T14:48:02.610Z,18.20
2023-04-10T14:50:34.602Z,18.20
2023-04-10T14:53:09.512Z,18.10
2023-04-10T14:55:41.502Z,18.20
2023-04-10T14:58:13.384Z,18.30
2023-04-10T15:00:45.418Z,18.40
2023-04-10T15:03:17.375Z,18.30
2023-04-10T15:05:49.307Z,18.10
2023-04-10T15:08:21.167Z,18.10
2023-04-10T15:10:53.325Z,18.20
2023-04-10T15:13:25.742Z,18.30
2023-04-10T15:15:57.786Z,18.10
2023-04-10T15:18:29.665Z,18.10
2023-04-10T15:21:01.974Z,18.10
2023-04-10T15:23:33.813Z,18.20
2023-04-10T15:26:10.602Z,18.00
2023-04-10T15:28:43.251Z,17.80
2023-04-10T15:31:15.821Z,17.80
2023-04-10T15:33:47.721Z,17.90
2023-04-10T15:36:19.586Z,17.90
2023-04-10T15:38:51.412Z,17.90
2023-04-10T15:41:23.391Z,17.90
2023-04-10T15:43:55.407Z,17.90
2023-04-10T15:46:27.486Z,18.00
2023-04-10T15:49:00.937Z,18.10
2023-04-10T15:51:32.788Z,18.30
2023-04-10T15:54:05.262Z,18.30
2023-04-10T15:56:37.247Z,18.30
2023-04-10T15:59:09.059Z,18.30
2023-04-10T16:01:40.956Z,18.30
2023-04-10T16:04:12.887Z,18.20
2023-04-10T16:06:44.707Z,18.10
2023-04-10T16:09:25.403Z,18.10
2023-04-10T16:11:58.647Z,17.90
2023-04-10T16:14:30.547Z,17.90
2023-04-10T16:17:02.464Z,18.00
2023-04-10T16:19:34.438Z,17.90
2023-04-10T16:22:06.417Z,17.90
2023-04-10T16:24:38.348Z,17.80
2023-04-10T16:27:10.421Z,17.80
2023-04-10T16:29:42.347Z,17.90
2023-04-10T16:32:14.205Z,17.80
2023-04-10T16:34:46.545Z,17.80
2023-04-10T16:37:18.450Z,17.70
2023-04-10T16:39:51.215Z,17.60
2023-04-10T16:42:23.302Z,17.50
2023-04-10T16:44:55.165Z,17.20
2023-04-10T16:47:27.064Z,17.10
2023-04-10T16:49:58.976Z,17.10
2023-04-10T16:52:32.174Z,17.10
2023-04-10T16:55:04.582Z,17.00
2023-04-10T16:57:36.443Z,16.90
2023-04-10T17:00:08.936Z,16.90
2023-04-10T17:02:42.785Z,16.90
2023-04-10T17:05:14.943Z,16.90
2023-04-10T17:07:46.875Z,16.90
2023-04-10T17:10:19.764Z,16.80
2023-04-10T17:12:51.632Z,16.70
2023-04-10T17:15:23.736Z,16.60
2023-04-10T17:17:55.732Z,16.60
2023-04-10T17:20:28.319Z,16.50
2023-04-10T17:23:00.279Z,16.20
2023-04-10T17:25:32.241Z,16.10
2023-04-10T17:28:04.157Z,16.00
2023-04-10T17:30:36.031Z,15.90
2023-04-10T17:33:07.919Z,15.90
2023-04-10T17:35:42.540Z,15.80
2023-04-10T17:38:14.440Z,15.70
2023-04-10T17:40:46.300Z,15.50
2023-04-10T17:43:18.276Z,15.30
2023-04-10T17:45:50.458Z,15.20
2023-04-10T17:48:22.694Z,15.10
2023-04-10T17:50:54.781Z,15.00
2023-04-10T17:53:26.855Z,15.00
2023-04-10T17:55:58.835Z,15.00
2023-04-10T17:58:31.134Z,15.00
2023-04-10T18:01:03.151Z,15.00
2023-04-10T18:03:35.347Z,15.00
2023-04-10T18:06:09.315Z,14.90
2023-04-10T18:08:41.807Z,14.90
2023-04-10T18:11:13.920Z,14.90
2023-04-10T18:13:47.098Z,14.80
2023-04-10T18:16:19.024Z,14.80
2023-04-10T18:18:51.074Z,14.70
2023-04-10T18:21:23.089Z,14.60
2023-04-10T18:23:55.142Z,14.50
2023-04-10T18:26:31.773Z,14.50
2023-04-10T18:29:04.233Z,14.40
2023-04-10T18:31:36.550Z,14.30
2023-04-10T18:34:08.941Z,14.20
2023-04-10T18:36:40.980Z,14.10
2023-04-10T18:39:12.901Z,14.00
2023-04-10T18:41:44.710Z,14.00
2023-04-10T18:44:16.639Z,13.80
2023-04-10T18:46:53.863Z,13.80
2023-04-10T18:49:30.241Z,13.70
2023-04-10T18:52:02.209Z,13.50
2023-04-10T18:54:34.700Z,13.40
2023-04-10T18:57:07.623Z,13.30
2023-04-10T18:59:39.652Z,13.30
2023-04-10T19:02:11.691Z,13.20
2023-04-10T19:04:43.873Z,13.00
2023-04-10T19:07:15.858Z,13.00
2023-04-10T19:09:48.026Z,13.00
2023-04-10T19:12:19.916Z,13.00
2023-04-10T19:14:51.744Z,13.00
2023-04-10T19:17:24.975Z,13.00
2023-04-10T19:19:58.113Z,12.90
2023-04-10T19:22:32.753Z,12.80
2023-04-10T19:25:05.031Z,12.70
2023-04-10T19:27:36.907Z,12.70
2023-04-10T19:30:09.200Z,12.60
2023-04-10T19:32:42.572Z,12.60
2023-04-10T19:35:14.711Z,12.60
2023-04-10T19:37:46.638Z,12.60
2023-04-10T19:40:21.933Z,12.60
2023-04-10T19:42:53.820Z,12.60
2023-04-10T19:45:27.985Z,12.60
2023-04-10T19:48:01.187Z,12.60
2023-04-10T19:50:33.801Z,12.60
2023-04-10T19:53:06.477Z,12.60
2023-04-10T19:55:40.483Z,12.50
2023-04-10T19:58:30.056Z,12.50
2023-04-10T20:01:06.417Z,12.60
2023-04-10T20:03:40.455Z,12.50
2023-04-10T20:06:21.523Z,12.50
2023-04-10T20:08:54.612Z,12.50
2023-04-10T20:11:30.610Z,12.60
2023-04-10T20:14:03.262Z,12.60
2023-04-10T20:16:37.636Z,12.50
2023-04-10T20:19:10.596Z,12.50
2023-04-10T20:21:45.811Z,12.30
2023-04-10T20:24:17.744Z,12.30
2023-04-10T20:26:50.401Z,12.30
2023-04-10T20:29:23.451Z,12.30
2023-04-10T20:31:55.404Z,12.30
2023-04-10T20:34:27.574Z,12.30
2023-04-10T20:36:59.548Z,12.30
2023-04-10T20:39:37.924Z,12.30
2023-04-10T20:42:09.836Z,12.30
2023-04-10T20:44:43.858Z,12.20
2023-04-10T20:47:15.826Z,12.10
2023-04-10T20:49:47.814Z,12.10
2023-04-10T20:52:19.680Z,12.00
2023-04-10T20:54:51.529Z,12.00
2023-04-10T20:57:23.847Z,12.00
2023-04-10T20:59:55.788Z,12.00
2023-04-10T21:02:27.853Z,12.00
2023-04-10T21:04:59.820Z,11.80
2023-04-10T21:07:31.864Z,11.80
2023-04-10T21:10:04.657Z,11.80
2023-04-10T21:12:36.516Z,11.80
2023-04-10T21:15:08.987Z,11.80
2023-04-10T21:17:40.967Z,11.80
2023-04-10T21:20:12.915Z,11.80
2023-04-10T21:22:44.783Z,11.80
2023-04-10T21:25:16.728Z,11.80
2023-04-10T21:27:48.593Z,11.70
2023-04-10T21:30:21.992Z,11.80
2023-04-10T21:32:53.997Z,11.80
2023-04-10T21:35:27.143Z,11.80
2023-04-10T21:38:02.039Z,11.80
2023-04-10T21:40:34.631Z,11.70
2023-04-10T21:43:06.879Z,11.80
2023-04-10T21:45:38.763Z,11.80
2023-04-10T21:48:10.792Z,11.70
2023-04-10T21:50:42.683Z,11.70
2023-04-10T21:53:14.715Z,11.70
2023-04-10T21:55:46.504Z,11.70
2023-04-10T21:58:18.534Z,11.60
2023-04-10T22:00:51.749Z,11.60
2023-04-10T22:03:24.145Z,11.60
2023-04-10T22:05:56.253Z,11.50
2023-04-10T22:08:28.074Z,11.50
2023-04-10T22:10:59.929Z,11.40
2023-04-10T22:13:31.879Z,11.40
2023-04-10T22:16:03.752Z,11.30
2023-04-10T22:18:35.683Z,11.20
2023-04-10T22:21:07.808Z,11.30
2023-04-10T22:23:39.614Z,11.30
2023-04-10T22:26:11.460Z,11.30
2023-04-10T22:28:43.376Z,11.20
2023-04-10T22:31:18.815Z,11.20
2023-04-10T22:33:50.727Z,11.20
2023-04-10T22:36:22.642Z,11.10
2023-04-10T22:38:54.616Z,11.10
2023-04-10T22:41:26.552Z,11.10
2023-04-10T22:43:58.572Z,11.20
2023-04-10T22:46:30.664Z,11.10
2023-04-10T22:49:02.710Z,11.10
2023-04-10T22:51:34.583Z,11.10
2023-04-10T22:54:06.390Z,11.00
2023-04-10T22:56:39.202Z,11.00
2023-04-10T22:59:11.170Z,10.90
2023-04-10T23:01:43.078Z,10.80
2023-04-10T23:04:15.039Z,10.80
2023-04-10T23:06:47.172Z,10.80
2023-04-10T23:09:18.968Z,10.80
2023-04-10T23:11:50.881Z,10.80
2023-04-10T23:14:22.723Z,10.80
2023-04-10T23:16:54.689Z,10.80
2023-04-10T23:19:26.552Z,10.70
2023-04-10T23:21:58.346Z,10.70
2023-04-10T23:24:30.261Z,10.70
2023-04-10T23:27:02.246Z,10.70
2023-04-10T23:29:34.851Z,10.80
2023-04-10T23:32:07.865Z,10.90
2023-04-10T23:34:39.690Z,10.90
2023-04-10T23:37:11.628Z,10.90
2023-04-10T23:39:43.458Z,10.80
2023-04-10T23:42:15.463Z,10.70
2023-04-10T23:44:47.343Z,10.50
2023-04-10T23:47:19.184Z,10.50
2023-04-10T23:49:51.048Z,10.40
2023-04-10T23:52:22.890Z,10.30
2023-04-10T23:54:57.970Z,10.20
2023-04-10T23:57:29.889Z,10.20
